Impacts METAR Board
IDs:

KLHB - Hearne Muni, TX, US

Updated at: 0300 UTC 06 Dec 2019
Potential Impact None Slight Moderate High
Time 05/15Z 05/16Z 05/17Z 05/18Z 05/19Z 05/20Z 05/21Z 05/22Z 05/23Z 06/00Z 06/01Z 06/02Z 06/03Z
Temp55 58 63 70 72 74 76 74 72 70 67 65 65
Dewpt49 55 56 60 61 61 60 60 60 59 59 58 58
Altim30.08 30.09 30.08 30.04 30.00 29.97 29.95 29.94 29.95 29.95 29.96 29.97 29.98
VIS10 7 7 10 10 10 10 10 10 10 10 10 10
CIG6 4 8 18 24 30 32 -- -- -- -- -- --
CoverOVCOVCOVCOVCOVCBKNBKNCLRCLRCLRCLRCLRCLR
FltCatIFRLIFRIFRMVFRMVFRMVFRVFRVFRVFRVFRVFRVFRVFR
WX--------------------------
WDir1700160190190190180180180170160140150
WSpd3 0 6 12 11 14 16 16 8 9 5 4 6
WGst-- -- -- 15 19 -- -- 20 -- -- -- -- --
Raw hourly METARs
KLHB 051455Z AUTO 17003KT 10SM OVC006 13/10 A3008 RMK AO2 T01300096
KLHB 051555Z AUTO 00000KT 7SM OVC004 14/13 A3009 RMK AO2 T01430125
KLHB 051655Z AUTO 16006KT 7SM OVC008 17/13 A3008 RMK AO2 T01720134
KLHB 051755Z AUTO 19012G15KT 10SM OVC018 21/16 A3004 RMK AO2 T02100157 10210 20092
KLHB 051855Z AUTO 19011G19KT 10SM OVC024 22/16 A3000 RMK AO2 T02210161
KLHB 051955Z AUTO 19014KT 10SM BKN030 BKN036 24/16 A2997 RMK AO2 T02360161
KLHB 052055Z AUTO 18016KT 10SM BKN032 24/16 A2995 RMK AO2 T02420156
KLHB 052155Z AUTO 18016G20KT 10SM CLR 23/16 A2994 RMK AO2 T02340155
KLHB 052255Z AUTO 18008KT 10SM CLR 22/16 A2995 RMK AO2 T02210155
KLHB 052355Z AUTO 17009KT 10SM CLR 21/15 A2995 RMK AO2 T02100152 10246 20210
KLHB 060055Z AUTO 16005KT 10SM CLR 20/15 A2996 RMK AO2 T01950150
KLHB 060155Z AUTO 14004KT 10SM CLR 19/15 A2997 RMK AO2 T01860146
KLHB 060255Z AUTO 15006KT 10SM CLR 18/15 A2998 RMK AO2 T01810147